Terminal Aerodrome Forecast
Issued by NWS Albany, NY

Home | Current Version | Previous Version | Text Only | Print | Product List | Glossary On
Versions: 1 2 3 4 5 6 7 8 9 10 11 12 13 14 15 16 17 18 19 20 21 22 23 24
000
FTUS41 KALY 280500
TAFGFL
TAF
KGFL 280537Z 2806/2906 00000KT P6SM BKN150 BKN200
     FM280900 03005KT 3SM RA BR BKN030 OVC080
      TEMPO 2809/2812 2SM RA BR OVC009
     FM281300 05006KT P6SM VCSH BKN050
     FM281600 06008KT 4SM -SHRA BR SCT008 OVC015 PROB30 2816/2820
      2SM -TSRA OVC030CB
     FM282200 32010G16KT P6SM VCSH BKN015 OVC030
     FM290200 31006KT P6SM BKN050=

USA.gov is the U.S. government's official web portal to all federal, state and local government web resources and services.